createdAt,value
2019-02-27T00:00:16.350Z,1.80
2019-02-27T00:02:48.648Z,1.70
2019-02-27T00:05:19.298Z,1.60
2019-02-27T00:07:53.931Z,1.50
2019-02-27T00:10:22.051Z,1.50
2019-02-27T00:12:52.633Z,1.50
2019-02-27T00:15:23.257Z,1.40
2019-02-27T00:17:53.872Z,1.30
2019-02-27T00:20:24.493Z,1.30
2019-02-27T00:22:54.807Z,1.30
2019-02-27T00:25:25.628Z,1.30
2019-02-27T00:27:56.115Z,1.20
2019-02-27T00:30:26.519Z,1.20
2019-02-27T00:32:57.069Z,1.10
2019-02-27T00:35:27.676Z,1.10
2019-02-27T00:37:58.152Z,1.00
2019-02-27T00:40:28.728Z,1.10
2019-02-27T00:42:59.128Z,1.10
2019-02-27T00:45:29.844Z,1.10
2019-02-27T00:48:00.484Z,1.00
2019-02-27T00:50:31.024Z,1.00
2019-02-27T00:53:01.513Z,1.00
2019-02-27T00:55:32.220Z,1.00
2019-02-27T00:58:02.652Z,1.10
2019-02-27T01:00:34.238Z,1.20
2019-02-27T01:03:06.532Z,1.30
2019-02-27T01:05:40.901Z,1.30
2019-02-27T01:08:09.067Z,0.90
2019-02-27T01:10:39.804Z,1.10
2019-02-27T01:13:10.228Z,1.10
2019-02-27T01:15:41.773Z,1.20
2019-02-27T01:18:13.187Z,1.20
2019-02-27T01:20:46.460Z,1.10
2019-02-27T01:23:15.986Z,1.10
2019-02-27T01:25:46.512Z,1.10
2019-02-27T01:28:17.288Z,1.10
2019-02-27T01:30:47.877Z,1.00
2019-02-27T01:33:18.589Z,0.90
2019-02-27T01:35:51.266Z,0.90
2019-02-27T01:38:21.218Z,0.80
2019-02-27T01:40:52.144Z,0.80
2019-02-27T01:43:22.633Z,0.80
2019-02-27T01:45:54.945Z,0.80
2019-02-27T01:48:25.498Z,0.80
2019-02-27T01:50:56.022Z,0.90
2019-02-27T01:53:26.565Z,0.80
2019-02-27T01:55:57.026Z,0.80
2019-02-27T01:58:27.752Z,0.70
2019-02-27T02:00:58.168Z,0.80
2019-02-27T02:03:29.125Z,0.70
2019-02-27T02:05:59.903Z,0.70
2019-02-27T02:08:30.464Z,0.60
2019-02-27T02:11:01.385Z,0.60
2019-02-27T02:14:21.214Z,0.60
2019-02-27T02:17:29.128Z,0.80
2019-02-27T02:20:32.088Z,0.80
2019-02-27T02:23:40.403Z,0.80
2019-02-27T02:26:52.148Z,0.70
2019-02-27T02:29:57.840Z,0.80
2019-02-27T02:32:52.066Z,0.70
2019-02-27T02:35:38.293Z,0.60
2019-02-27T02:38:58.657Z,0.60
2019-02-27T02:42:11.654Z,0.60
2019-02-27T02:45:07.991Z,0.50
2019-02-27T02:48:10.895Z,0.60
2019-02-27T02:51:29.169Z,0.60
2019-02-27T02:54:47.791Z,0.60
2019-02-27T02:57:57.649Z,0.60
2019-02-27T03:01:15.193Z,0.60
2019-02-27T03:04:29.722Z,0.60
2019-02-27T03:07:44.499Z,0.60
2019-02-27T03:10:33.390Z,0.60
2019-02-27T03:13:41.491Z,0.50
2019-02-27T03:16:29.904Z,0.60
2019-02-27T03:19:47.465Z,0.50
2019-02-27T03:23:02.147Z,0.50
2019-02-27T03:25:49.753Z,0.40
2019-02-27T03:29:07.125Z,0.40
2019-02-27T03:32:16.230Z,0.40
2019-02-27T03:35:27.983Z,0.40
2019-02-27T03:38:27.363Z,0.40
2019-02-27T03:41:37.514Z,0.50
2019-02-27T03:44:30.447Z,0.70
2019-02-27T03:47:28.008Z,0.80
2019-02-27T03:50:30.502Z,0.80
2019-02-27T03:54:09.205Z,0.70
2019-02-27T03:57:04.884Z,0.60
2019-02-27T04:00:02.323Z,0.60
2019-02-27T04:03:05.541Z,0.50
2019-02-27T04:05:58.800Z,0.50
2019-02-27T04:09:05.009Z,0.50
2019-02-27T04:11:41.524Z,0.50
2019-02-27T04:14:28.648Z,0.50
2019-02-27T04:17:05.515Z,0.40
2019-02-27T04:19:38.748Z,0.70
2019-02-27T04:22:05.001Z,0.80
2019-02-27T04:24:35.472Z,0.80
2019-02-27T04:27:05.878Z,0.80
2019-02-27T04:29:40.840Z,0.80
2019-02-27T04:32:12.346Z,0.60
2019-02-27T04:34:41.596Z,0.60
2019-02-27T04:37:12.070Z,0.60
2019-02-27T04:39:42.702Z,0.50
2019-02-27T04:42:13.276Z,0.50
2019-02-27T04:44:43.699Z,0.50
2019-02-27T04:47:14.218Z,0.50
2019-02-27T04:49:44.788Z,0.60
2019-02-27T04:52:15.485Z,0.60
2019-02-27T04:54:46.232Z,0.60
2019-02-27T04:57:16.881Z,0.60
2019-02-27T04:59:49.688Z,0.60
2019-02-27T05:02:19.916Z,0.60
2019-02-27T05:04:50.537Z,0.60
2019-02-27T05:07:21.113Z,0.60
2019-02-27T05:09:51.636Z,0.60
2019-02-27T05:12:22.390Z,0.60
2019-02-27T05:14:52.964Z,0.70
2019-02-27T05:17:23.740Z,0.60
2019-02-27T05:19:54.260Z,0.60
2019-02-27T05:22:26.776Z,0.60
2019-02-27T05:24:57.030Z,0.70
2019-02-27T05:27:27.740Z,0.70
2019-02-27T05:30:00.022Z,0.60
2019-02-27T05:32:30.577Z,0.70
2019-02-27T05:35:01.234Z,0.70
2019-02-27T05:37:31.800Z,0.70
2019-02-27T05:40:02.592Z,0.80
2019-02-27T05:42:34.024Z,0.80
2019-02-27T05:45:04.890Z,0.70
2019-02-27T05:47:35.626Z,0.70
2019-02-27T05:50:07.250Z,0.70
2019-02-27T05:52:37.691Z,0.80
2019-02-27T05:55:09.277Z,0.90
2019-02-27T05:57:39.700Z,0.80
2019-02-27T06:00:15.672Z,0.80
2019-02-27T06:02:46.002Z,0.80
2019-02-27T06:05:16.500Z,0.80
2019-02-27T06:07:49.038Z,0.80
2019-02-27T06:10:20.753Z,0.80
2019-02-27T06:12:51.256Z,0.80
2019-02-27T06:15:21.769Z,0.80
2019-02-27T06:17:52.109Z,0.80
2019-02-27T06:20:22.633Z,0.80
2019-02-27T06:22:54.136Z,0.80
2019-02-27T06:25:24.642Z,0.80
2019-02-27T06:27:55.244Z,0.80
2019-02-27T06:30:27.963Z,0.80
2019-02-27T06:32:58.192Z,0.80
2019-02-27T06:35:33.492Z,0.90
2019-02-27T06:38:02.125Z,1.00
2019-02-27T06:40:32.773Z,1.00
2019-02-27T06:43:05.529Z,1.00
2019-02-27T06:45:39.938Z,1.10
2019-02-27T06:48:10.421Z,1.10
2019-02-27T06:50:40.918Z,1.20
2019-02-27T06:53:15.398Z,1.20
2019-02-27T06:55:43.953Z,1.30
2019-02-27T06:58:15.452Z,1.30
2019-02-27T07:00:45.851Z,1.40
2019-02-27T07:03:16.657Z,1.40
2019-02-27T07:05:48.256Z,1.50
2019-02-27T07:08:20.134Z,1.50
2019-02-27T07:10:50.580Z,1.60
2019-02-27T07:13:21.695Z,1.60
2019-02-27T07:15:52.052Z,1.60
2019-02-27T07:18:22.708Z,1.70
2019-02-27T07:20:55.745Z,1.70
2019-02-27T07:23:25.322Z,1.80
2019-02-27T07:25:56.137Z,1.80
2019-02-27T07:28:26.941Z,1.90
2019-02-27T07:30:57.312Z,2.00
2019-02-27T07:33:28.104Z,2.10
2019-02-27T07:36:03.146Z,2.20
2019-02-27T07:38:31.415Z,2.20
2019-02-27T07:41:02.071Z,2.30
2019-02-27T07:43:33.144Z,2.40
2019-02-27T07:46:03.741Z,2.50
2019-02-27T07:48:34.604Z,2.60
2019-02-27T07:51:04.984Z,2.70
2019-02-27T07:53:35.933Z,2.80
2019-02-27T07:56:06.632Z,2.90
2019-02-27T07:58:37.309Z,3.00
2019-02-27T08:01:07.896Z,3.10
2019-02-27T08:03:38.524Z,3.20
2019-02-27T08:06:09.009Z,3.30
2019-02-27T08:08:39.656Z,3.50
2019-02-27T08:11:13.430Z,3.60
2019-02-27T08:13:42.711Z,3.70
2019-02-27T08:16:13.148Z,3.80
2019-02-27T08:18:43.802Z,3.80
2019-02-27T08:21:14.216Z,4.00
2019-02-27T08:23:45.026Z,4.00
2019-02-27T08:26:15.875Z,4.10
2019-02-27T08:28:46.484Z,4.20
2019-02-27T08:31:17.039Z,4.30
2019-02-27T08:33:47.607Z,4.40
2019-02-27T08:36:18.021Z,4.50
2019-02-27T08:38:48.478Z,4.70
2019-02-27T08:41:18.955Z,4.70
2019-02-27T08:43:49.798Z,4.80
2019-02-27T08:46:20.205Z,4.80
2019-02-27T08:48:50.876Z,4.90
2019-02-27T08:51:22.192Z,4.90
2019-02-27T08:53:52.712Z,4.90
2019-02-27T08:56:23.156Z,4.90
2019-02-27T08:58:53.708Z,4.90
2019-02-27T09:01:24.272Z,4.90
2019-02-27T09:03:54.929Z,5.00
2019-02-27T09:06:27.519Z,5.00
2019-02-27T09:08:58.680Z,5.10
2019-02-27T09:11:29.216Z,5.20
2019-02-27T09:13:59.769Z,5.30
2019-02-27T09:16:30.284Z,5.40
2019-02-27T09:19:00.981Z,5.50
2019-02-27T09:21:31.432Z,5.60
2019-02-27T09:24:01.997Z,5.70
2019-02-27T09:26:36.067Z,5.80
2019-02-27T09:29:04.976Z,5.90
2019-02-27T09:31:37.778Z,6.00
2019-02-27T09:34:08.119Z,6.20
2019-02-27T09:36:43.039Z,6.30
2019-02-27T09:39:11.393Z,6.40
2019-02-27T09:41:46.047Z,6.60
2019-02-27T09:44:14.537Z,6.70
2019-02-27T09:46:44.993Z,6.90
2019-02-27T09:49:15.532Z,7.10
2019-02-27T09:51:45.960Z,7.30
2019-02-27T09:54:16.489Z,7.40
2019-02-27T09:56:46.995Z,7.50
2019-02-27T09:59:19.681Z,7.60
2019-02-27T10:01:49.921Z,7.70
2019-02-27T10:04:20.497Z,7.80
2019-02-27T10:06:50.932Z,8.00
2019-02-27T10:09:21.593Z,8.00
2019-02-27T10:11:52.328Z,8.10
2019-02-27T10:14:24.104Z,8.20
2019-02-27T10:16:54.560Z,8.30
2019-02-27T10:19:26.992Z,8.30
2019-02-27T10:21:57.209Z,8.40
2019-02-27T10:24:27.705Z,8.40
2019-02-27T10:26:58.253Z,8.50
2019-02-27T10:29:28.781Z,8.60
2019-02-27T10:32:00.729Z,8.60
2019-02-27T10:34:31.560Z,8.70
2019-02-27T10:37:03.251Z,8.80
2019-02-27T10:39:36.902Z,8.90
2019-02-27T10:42:10.006Z,9.00
2019-02-27T10:44:41.949Z,9.00
2019-02-27T10:47:12.391Z,9.10
2019-02-27T10:49:45.577Z,9.10
2019-02-27T10:52:16.063Z,9.20
2019-02-27T10:54:47.218Z,9.20
2019-02-27T10:57:17.937Z,9.30
2019-02-27T10:59:49.226Z,9.40
2019-02-27T11:02:19.961Z,9.50
2019-02-27T11:04:50.736Z,9.60
2019-02-27T11:07:21.463Z,9.70
2019-02-27T11:09:52.208Z,9.90
2019-02-27T11:12:22.867Z,9.90
2019-02-27T11:14:53.695Z,10.10
2019-02-27T11:17:25.256Z,10.10
2019-02-27T11:19:55.994Z,10.20
2019-02-27T11:22:26.817Z,10.30
2019-02-27T11:24:57.721Z,10.40
2019-02-27T11:27:28.360Z,10.40
2019-02-27T11:30:01.240Z,10.50
2019-02-27T11:32:31.541Z,10.60
2019-02-27T11:35:02.372Z,10.60
2019-02-27T11:37:34.080Z,10.70
2019-02-27T11:40:07.832Z,10.60
2019-02-27T11:42:37.703Z,10.50
2019-02-27T11:45:09.410Z,10.60
2019-02-27T11:47:45.073Z,10.70
2019-02-27T11:50:14.681Z,10.80
2019-02-27T11:52:49.122Z,10.80
2019-02-27T11:55:19.091Z,11.00
2019-02-27T11:57:50.249Z,11.10
2019-02-27T12:00:28.479Z,11.20
2019-02-27T12:02:59.848Z,11.20
2019-02-27T12:05:34.299Z,11.40
2019-02-27T12:08:04.252Z,11.40
2019-02-27T12:10:35.423Z,11.60
2019-02-27T12:13:06.556Z,13.40
2019-02-27T12:15:43.593Z,14.50
2019-02-27T12:18:13.716Z,15.50
2019-02-27T12:20:44.613Z,16.90
2019-02-27T12:23:15.193Z,17.80
2019-02-27T12:25:46.285Z,18.90
2019-02-27T12:28:19.389Z,18.70
2019-02-27T12:30:50.866Z,19.90
2019-02-27T12:33:21.470Z,20.60
2019-02-27T12:35:53.788Z,20.80
2019-02-27T12:38:25.366Z,21.00
2019-02-27T12:40:58.275Z,20.90
2019-02-27T12:43:28.452Z,20.70
2019-02-27T12:46:01.000Z,21.20
2019-02-27T12:48:31.172Z,21.30
2019-02-27T12:51:03.648Z,21.20
2019-02-27T12:53:33.985Z,21.70
2019-02-27T12:56:07.862Z,21.80
2019-02-27T12:58:37.332Z,22.50
2019-02-27T13:01:08.243Z,23.00
2019-02-27T13:03:42.240Z,22.70
2019-02-27T13:06:11.206Z,22.30
2019-02-27T13:08:41.652Z,22.30
2019-02-27T13:11:12.433Z,22.00
2019-02-27T13:13:43.100Z,21.90
2019-02-27T13:16:14.432Z,22.20
2019-02-27T13:18:46.528Z,21.90
2019-02-27T13:21:20.475Z,22.30
2019-02-27T13:23:49.640Z,21.50
2019-02-27T13:26:20.549Z,20.60
2019-02-27T13:28:53.830Z,20.70
2019-02-27T13:31:26.885Z,20.10
2019-02-27T13:34:00.424Z,19.00
2019-02-27T13:36:34.033Z,18.00
2019-02-27T13:39:08.213Z,16.80
2019-02-27T13:41:39.040Z,16.50
2019-02-27T13:44:09.619Z,16.10
2019-02-27T13:46:40.120Z,15.70
2019-02-27T13:49:11.335Z,15.30
2019-02-27T13:51:42.664Z,14.50
2019-02-27T13:54:13.520Z,13.70
2019-02-27T13:56:47.584Z,13.30
2019-02-27T13:59:24.363Z,12.80
2019-02-27T14:01:55.610Z,12.20
2019-02-27T14:04:26.479Z,11.60
2019-02-27T14:06:57.166Z,11.10
2019-02-27T14:09:27.643Z,10.70
2019-02-27T14:11:58.700Z,10.40
2019-02-27T14:14:30.387Z,10.10
2019-02-27T14:17:01.275Z,10.00
2019-02-27T14:19:31.933Z,9.80
2019-02-27T14:22:07.242Z,9.60
2019-02-27T14:24:34.957Z,9.40
2019-02-27T14:27:05.988Z,9.40
2019-02-27T14:29:36.832Z,9.30
2019-02-27T14:32:07.396Z,9.30
2019-02-27T14:34:38.020Z,9.30
2019-02-27T14:37:08.643Z,9.20
2019-02-27T14:39:39.163Z,9.30
2019-02-27T14:42:09.695Z,9.40
2019-02-27T14:44:40.445Z,9.50
2019-02-27T14:47:11.155Z,9.60
2019-02-27T14:49:41.814Z,9.70
2019-02-27T14:52:14.203Z,9.80
2019-02-27T14:54:44.892Z,9.80
2019-02-27T14:57:15.961Z,9.80
2019-02-27T14:59:47.261Z,9.80
2019-02-27T15:02:22.165Z,9.80
2019-02-27T15:04:51.600Z,9.90
2019-02-27T15:07:22.264Z,10.00
2019-02-27T15:09:54.212Z,10.10
2019-02-27T15:12:24.944Z,10.20
2019-02-27T15:14:55.707Z,10.30
2019-02-27T15:17:26.429Z,10.30
2019-02-27T15:19:57.016Z,10.30
2019-02-27T15:22:27.540Z,10.30
2019-02-27T15:24:59.166Z,10.20
2019-02-27T15:27:29.724Z,10.00
2019-02-27T15:30:00.325Z,9.80
2019-02-27T15:32:31.093Z,9.70
2019-02-27T15:35:01.766Z,9.50
2019-02-27T15:37:37.167Z,9.40
2019-02-27T15:40:05.368Z,9.40
2019-02-27T15:42:37.012Z,9.20
2019-02-27T15:45:09.975Z,9.10
2019-02-27T15:47:40.669Z,8.90
2019-02-27T15:50:12.652Z,8.80
2019-02-27T15:52:43.312Z,8.60
2019-02-27T15:55:14.094Z,8.50
2019-02-27T15:57:44.581Z,8.30
2019-02-27T16:00:19.415Z,8.20
2019-02-27T16:02:50.283Z,8.10
2019-02-27T16:05:20.691Z,8.00
2019-02-27T16:07:51.215Z,7.90
2019-02-27T16:10:22.629Z,7.90
2019-02-27T16:12:53.654Z,7.80
2019-02-27T16:15:24.515Z,7.80
2019-02-27T16:17:55.274Z,7.70
2019-02-27T16:20:25.771Z,7.60
2019-02-27T16:22:56.584Z,7.60
2019-02-27T16:25:28.140Z,7.50
2019-02-27T16:27:58.657Z,7.40
2019-02-27T16:30:32.454Z,7.40
2019-02-27T16:33:01.724Z,7.30
2019-02-27T16:35:32.226Z,7.30
2019-02-27T16:38:02.897Z,7.30
2019-02-27T16:40:33.292Z,7.20
2019-02-27T16:43:03.916Z,7.10
2019-02-27T16:45:36.838Z,7.00
2019-02-27T16:48:06.673Z,7.00
2019-02-27T16:50:37.191Z,6.90
2019-02-27T16:53:07.686Z,6.80
2019-02-27T16:55:39.497Z,6.70
2019-02-27T16:58:12.284Z,6.70
2019-02-27T17:00:43.196Z,6.60
2019-02-27T17:03:14.062Z,6.50
2019-02-27T17:05:45.310Z,6.50
2019-02-27T17:08:15.948Z,6.50
2019-02-27T17:10:46.355Z,6.40
2019-02-27T17:13:16.871Z,6.40
2019-02-27T17:15:47.331Z,6.40
2019-02-27T17:18:18.168Z,6.30
2019-02-27T17:20:48.551Z,6.10
2019-02-27T17:23:19.009Z,5.90
2019-02-27T17:25:51.612Z,5.80
2019-02-27T17:28:22.380Z,5.70
2019-02-27T17:30:52.803Z,5.50
2019-02-27T17:33:23.592Z,5.40
2019-02-27T17:35:58.549Z,5.20
2019-02-27T17:38:26.416Z,5.20
2019-02-27T17:40:57.016Z,5.10
2019-02-27T17:43:29.500Z,5.20
2019-02-27T17:46:01.453Z,5.10
2019-02-27T17:48:32.072Z,5.10
2019-02-27T17:51:05.563Z,5.10
2019-02-27T17:53:34.856Z,5.10
2019-02-27T17:56:05.475Z,5.00
2019-02-27T17:58:35.915Z,5.00
2019-02-27T18:01:07.392Z,5.10
2019-02-27T18:03:41.544Z,5.00
2019-02-27T18:06:10.808Z,5.00
2019-02-27T18:08:41.372Z,5.00
2019-02-27T18:11:12.354Z,5.00
2019-02-27T18:13:43.963Z,5.00
2019-02-27T18:16:14.540Z,5.00
2019-02-27T18:18:45.509Z,5.00
2019-02-27T18:21:18.490Z,5.00
2019-02-27T18:23:50.763Z,4.90
2019-02-27T18:26:31.915Z,4.80
2019-02-27T18:29:27.662Z,4.80
2019-02-27T18:32:06.112Z,4.70
2019-02-27T18:34:33.974Z,4.60
2019-02-27T18:37:05.468Z,4.40
2019-02-27T18:39:36.548Z,4.40
2019-02-27T18:42:07.844Z,4.20
2019-02-27T18:45:02.012Z,4.10
2019-02-27T18:48:10.986Z,4.00
2019-02-27T18:50:39.761Z,3.90
2019-02-27T18:53:13.061Z,3.90
2019-02-27T18:55:44.006Z,3.70
2019-02-27T18:58:14.640Z,3.70
2019-02-27T19:00:46.378Z,3.60
2019-02-27T19:03:16.925Z,3.60
2019-02-27T19:05:47.587Z,3.50
2019-02-27T19:08:18.125Z,3.60
2019-02-27T19:10:48.813Z,3.50
2019-02-27T19:13:19.275Z,3.60
2019-02-27T19:15:50.082Z,3.60
2019-02-27T19:18:20.725Z,3.60
2019-02-27T19:20:51.300Z,3.80
2019-02-27T19:23:21.696Z,4.10
2019-02-27T19:25:52.511Z,4.00
2019-02-27T19:28:25.007Z,4.00
2019-02-27T19:30:55.132Z,4.00
2019-02-27T19:33:25.852Z,4.10
2019-02-27T19:35:57.537Z,4.30
2019-02-27T19:38:28.098Z,4.50
2019-02-27T19:41:01.259Z,4.50
2019-02-27T19:43:30.808Z,4.70
2019-02-27T19:46:01.594Z,4.60
2019-02-27T19:48:32.130Z,4.80
2019-02-27T19:51:03.079Z,4.90
2019-02-27T19:53:33.744Z,5.00
2019-02-27T19:56:08.067Z,5.00
2019-02-27T19:58:38.457Z,5.00
2019-02-27T20:01:09.872Z,5.00
2019-02-27T20:03:40.520Z,5.00
2019-02-27T20:06:11.096Z,5.10
2019-02-27T20:08:45.375Z,4.90
2019-02-27T20:11:15.231Z,4.90
2019-02-27T20:13:45.675Z,4.90
2019-02-27T20:16:17.717Z,4.90
2019-02-27T20:18:54.852Z,4.80
2019-02-27T20:21:21.116Z,4.70
2019-02-27T20:23:51.439Z,4.80
2019-02-27T20:26:22.084Z,4.70
2019-02-27T20:28:52.615Z,4.90
2019-02-27T20:31:23.057Z,4.90
2019-02-27T20:33:53.608Z,4.80
2019-02-27T20:36:24.223Z,4.90
2019-02-27T20:38:54.821Z,4.90
2019-02-27T20:41:25.787Z,4.90
2019-02-27T20:43:56.091Z,4.70
2019-02-27T20:46:27.116Z,4.80
2019-02-27T20:48:58.016Z,4.90
2019-02-27T20:51:28.573Z,4.80
2019-02-27T20:53:59.283Z,4.70
2019-02-27T20:56:29.860Z,4.60
2019-02-27T20:59:02.002Z,4.60
2019-02-27T21:01:33.647Z,4.50
2019-02-27T21:04:04.473Z,4.60
2019-02-27T21:06:35.060Z,4.50
2019-02-27T21:09:11.109Z,4.50
2019-02-27T21:11:39.880Z,4.50
2019-02-27T21:14:13.145Z,4.50
2019-02-27T21:16:45.717Z,4.50
2019-02-27T21:19:16.308Z,4.40
2019-02-27T21:21:46.932Z,4.50
2019-02-27T21:24:20.141Z,4.30
2019-02-27T21:26:50.643Z,4.30
2019-02-27T21:29:21.189Z,4.30
2019-02-27T21:31:52.033Z,4.20
2019-02-27T21:34:22.599Z,4.20
2019-02-27T21:36:53.372Z,4.20
2019-02-27T21:39:25.255Z,4.20
2019-02-27T21:41:56.072Z,4.10
2019-02-27T21:44:30.438Z,4.20
2019-02-27T21:47:01.110Z,4.20
2019-02-27T21:49:32.879Z,4.10
2019-02-27T21:52:03.334Z,4.00
2019-02-27T21:54:38.396Z,4.00
2019-02-27T21:57:05.995Z,4.00
2019-02-27T21:59:39.772Z,4.10
2019-02-27T22:02:10.231Z,4.10
2019-02-27T22:04:41.204Z,4.10
2019-02-27T22:07:13.332Z,4.00
2019-02-27T22:09:44.673Z,4.10
2019-02-27T22:12:16.947Z,4.10
2019-02-27T22:14:48.581Z,4.10
2019-02-27T22:17:19.723Z,4.20
2019-02-27T22:19:50.521Z,4.20
2019-02-27T22:22:22.584Z,4.20
2019-02-27T22:24:55.602Z,4.20
2019-02-27T22:27:25.160Z,4.40
2019-02-27T22:29:55.945Z,4.50
2019-02-27T22:32:26.458Z,4.60
2019-02-27T22:34:59.198Z,4.70
2019-02-27T22:37:29.484Z,4.70
2019-02-27T22:39:59.871Z,4.80
2019-02-27T22:42:30.311Z,4.80
2019-02-27T22:45:04.198Z,4.80
2019-02-27T22:47:33.267Z,4.80
2019-02-27T22:50:06.912Z,4.80
2019-02-27T22:52:36.037Z,4.80
2019-02-27T22:55:07.279Z,4.80
2019-02-27T22:57:39.158Z,4.80
2019-02-27T23:00:29.511Z,4.80
2019-02-27T23:03:01.601Z,4.80
2019-02-27T23:05:35.231Z,4.80
2019-02-27T23:08:04.800Z,4.70
2019-02-27T23:10:36.231Z,4.60
2019-02-27T23:13:12.390Z,4.60
2019-02-27T23:15:40.903Z,4.60
2019-02-27T23:18:11.459Z,4.70
2019-02-27T23:20:42.795Z,4.60
2019-02-27T23:23:16.480Z,4.60
2019-02-27T23:25:47.440Z,4.70
2019-02-27T23:28:17.924Z,4.80
2019-02-27T23:30:48.560Z,4.90
2019-02-27T23:33:19.228Z,5.00
2019-02-27T23:35:50.155Z,5.10
2019-02-27T23:38:21.484Z,5.10
2019-02-27T23:40:51.776Z,5.10
2019-02-27T23:43:22.291Z,5.10
2019-02-27T23:45:52.761Z,5.10
2019-02-27T23:48:23.495Z,5.10
2019-02-27T23:50:54.168Z,5.20
2019-02-27T23:53:27.111Z,5.20
2019-02-27T23:55:56.643Z,5.30
2019-02-27T23:58:29.432Z,5.20
